sensor_id;sensor_type;location;lat;lon;timestamp;P1;durP1;ratioP1;P2;durP2;ratioP2
34828;SDS011;21042;47.620;12.188;2023-05-07T00:02:06;8.70;;;4.25;;
34828;SDS011;21042;47.620;12.188;2023-05-07T00:04:33;10.43;;;3.97;;
34828;SDS011;21042;47.620;12.188;2023-05-07T00:07:03;6.07;;;3.53;;
34828;SDS011;21042;47.620;12.188;2023-05-07T00:09:30;9.00;;;5.07;;
34828;SDS011;21042;47.620;12.188;2023-05-07T00:11:57;9.75;;;4.15;;
34828;SDS011;21042;47.620;12.188;2023-05-07T00:14:24;7.15;;;4.63;;
34828;SDS011;21042;47.620;12.188;2023-05-07T00:16:50;14.95;;;5.78;;
34828;SDS011;21042;47.620;12.188;2023-05-07T00:19:17;10.32;;;5.78;;
34828;SDS011;21042;47.620;12.188;2023-05-07T00:21:44;11.40;;;5.45;;
34828;SDS011;21042;47.620;12.188;2023-05-07T00:24:11;11.52;;;4.88;;
34828;SDS011;21042;47.620;12.188;2023-05-07T00:26:37;13.18;;;5.57;;
34828;SDS011;21042;47.620;12.188;2023-05-07T00:29:04;11.30;;;5.82;;
34828;SDS011;21042;47.620;12.188;2023-05-07T00:31:31;12.00;;;5.18;;
34828;SDS011;21042;47.620;12.188;2023-05-07T00:33:58;10.68;;;5.15;;
34828;SDS011;21042;47.620;12.188;2023-05-07T00:36:24;9.55;;;5.15;;
34828;SDS011;21042;47.620;12.188;2023-05-07T00:38:53;7.03;;;5.15;;
34828;SDS011;21042;47.620;12.188;2023-05-07T00:41:21;7.30;;;4.72;;
34828;SDS011;21042;47.620;12.188;2023-05-07T00:43:48;7.93;;;5.00;;
34828;SDS011;21042;47.620;12.188;2023-05-07T00:46:18;9.57;;;4.53;;
34828;SDS011;21042;47.620;12.188;2023-05-07T00:48:47;6.40;;;5.20;;
34828;SDS011;21042;47.620;12.188;2023-05-07T00:51:14;9.48;;;5.38;;
34828;SDS011;21042;47.620;12.188;2023-05-07T00:53:41;5.75;;;4.22;;
34828;SDS011;21042;47.620;12.188;2023-05-07T00:56:08;9.60;;;4.13;;
34828;SDS011;21042;47.620;12.188;2023-05-07T01:01:02;9.00;;;4.18;;
34828;SDS011;21042;47.620;12.188;2023-05-07T01:03:29;5.97;;;4.25;;
34828;SDS011;21042;47.620;12.188;2023-05-07T01:05:57;5.13;;;3.97;;
34828;SDS011;21042;47.620;12.188;2023-05-07T01:08:25;7.53;;;4.05;;
34828;SDS011;21042;47.620;12.188;2023-05-07T01:10:56;8.10;;;3.80;;
34828;SDS011;21042;47.620;12.188;2023-05-07T01:13:23;6.55;;;3.65;;
34828;SDS011;21042;47.620;12.188;2023-05-07T01:15:51;8.23;;;3.22;;
34828;SDS011;21042;47.620;12.188;2023-05-07T01:18:18;5.75;;;3.45;;
34828;SDS011;21042;47.620;12.188;2023-05-07T01:20:45;5.47;;;3.50;;
34828;SDS011;21042;47.620;12.188;2023-05-07T01:23:12;6.90;;;3.90;;
34828;SDS011;21042;47.620;12.188;2023-05-07T01:25:39;9.40;;;4.03;;
34828;SDS011;21042;47.620;12.188;2023-05-07T01:28:07;5.75;;;3.78;;
34828;SDS011;21042;47.620;12.188;2023-05-07T01:30:36;4.95;;;3.15;;
34828;SDS011;21042;47.620;12.188;2023-05-07T01:33:11;5.10;;;3.58;;
34828;SDS011;21042;47.620;12.188;2023-05-07T01:35:42;7.20;;;3.65;;
34828;SDS011;21042;47.620;12.188;2023-05-07T01:38:12;3.53;;;3.22;;
34828;SDS011;21042;47.620;12.188;2023-05-07T01:43:06;5.25;;;3.60;;
34828;SDS011;21042;47.620;12.188;2023-05-07T01:45:35;5.60;;;3.58;;
34828;SDS011;21042;47.620;12.188;2023-05-07T01:50:29;5.40;;;3.60;;
34828;SDS011;21042;47.620;12.188;2023-05-07T01:52:57;8.43;;;3.55;;
34828;SDS011;21042;47.620;12.188;2023-05-07T01:55:24;4.95;;;3.78;;
34828;SDS011;21042;47.620;12.188;2023-05-07T01:57:51;5.45;;;3.58;;
34828;SDS011;21042;47.620;12.188;2023-05-07T02:00:18;5.13;;;3.53;;
34828;SDS011;21042;47.620;12.188;2023-05-07T02:02:45;4.22;;;3.63;;
34828;SDS011;21042;47.620;12.188;2023-05-07T02:05:23;5.43;;;3.63;;
34828;SDS011;21042;47.620;12.188;2023-05-07T02:07:57;6.53;;;3.50;;
34828;SDS011;21042;47.620;12.188;2023-05-07T02:10:26;5.43;;;3.45;;
34828;SDS011;21042;47.620;12.188;2023-05-07T02:12:53;4.50;;;3.55;;
34828;SDS011;21042;47.620;12.188;2023-05-07T02:15:20;9.68;;;3.58;;
34828;SDS011;21042;47.620;12.188;2023-05-07T02:18:07;7.35;;;3.58;;
34828;SDS011;21042;47.620;12.188;2023-05-07T02:20:35;4.57;;;3.60;;
34828;SDS011;21042;47.620;12.188;2023-05-07T02:23:02;5.20;;;3.63;;
34828;SDS011;21042;47.620;12.188;2023-05-07T02:25:29;7.70;;;4.07;;
34828;SDS011;21042;47.620;12.188;2023-05-07T02:27:57;6.32;;;3.65;;
34828;SDS011;21042;47.620;12.188;2023-05-07T02:30:35;7.57;;;4.10;;
34828;SDS011;21042;47.620;12.188;2023-05-07T02:33:03;6.22;;;3.83;;
34828;SDS011;21042;47.620;12.188;2023-05-07T02:35:30;11.55;;;4.05;;
34828;SDS011;21042;47.620;12.188;2023-05-07T02:37:57;9.57;;;4.35;;
34828;SDS011;21042;47.620;12.188;2023-05-07T02:40:24;10.57;;;3.50;;
34828;SDS011;21042;47.620;12.188;2023-05-07T02:42:51;5.40;;;3.40;;
34828;SDS011;21042;47.620;12.188;2023-05-07T02:45:18;6.25;;;3.40;;
34828;SDS011;21042;47.620;12.188;2023-05-07T02:47:45;4.35;;;3.42;;
34828;SDS011;21042;47.620;12.188;2023-05-07T02:50:13;5.97;;;3.53;;
34828;SDS011;21042;47.620;12.188;2023-05-07T02:52:39;6.35;;;3.30;;
34828;SDS011;21042;47.620;12.188;2023-05-07T02:55:06;4.72;;;3.47;;
34828;SDS011;21042;47.620;12.188;2023-05-07T02:57:33;4.40;;;3.38;;
34828;SDS011;21042;47.620;12.188;2023-05-07T03:00:09;7.80;;;3.85;;
34828;SDS011;21042;47.620;12.188;2023-05-07T03:02:46;6.68;;;3.53;;
34828;SDS011;21042;47.620;12.188;2023-05-07T03:05:13;6.53;;;3.70;;
34828;SDS011;21042;47.620;12.188;2023-05-07T03:07:40;6.82;;;3.83;;
34828;SDS011;21042;47.620;12.188;2023-05-07T03:10:12;7.32;;;3.70;;
34828;SDS011;21042;47.620;12.188;2023-05-07T03:12:39;6.95;;;3.60;;
34828;SDS011;21042;47.620;12.188;2023-05-07T03:17:33;6.28;;;3.67;;
34828;SDS011;21042;47.620;12.188;2023-05-07T03:20:00;6.72;;;3.60;;
34828;SDS011;21042;47.620;12.188;2023-05-07T03:22:28;6.00;;;4.15;;
34828;SDS011;21042;47.620;12.188;2023-05-07T03:24:55;5.28;;;3.78;;
34828;SDS011;21042;47.620;12.188;2023-05-07T03:27:22;7.60;;;4.22;;
34828;SDS011;21042;47.620;12.188;2023-05-07T03:29:51;7.47;;;4.28;;
34828;SDS011;21042;47.620;12.188;2023-05-07T03:32:19;7.93;;;4.78;;
34828;SDS011;21042;47.620;12.188;2023-05-07T03:34:46;5.63;;;4.28;;
34828;SDS011;21042;47.620;12.188;2023-05-07T03:37:13;9.20;;;4.75;;
34828;SDS011;21042;47.620;12.188;2023-05-07T03:39:41;7.63;;;4.47;;
34828;SDS011;21042;47.620;12.188;2023-05-07T03:42:08;16.63;;;5.55;;
34828;SDS011;21042;47.620;12.188;2023-05-07T03:47:02;8.43;;;4.63;;
34828;SDS011;21042;47.620;12.188;2023-05-07T03:49:30;7.50;;;4.63;;
34828;SDS011;21042;47.620;12.188;2023-05-07T03:51:57;9.52;;;4.97;;
34828;SDS011;21042;47.620;12.188;2023-05-07T03:54:24;8.70;;;5.22;;
34828;SDS011;21042;47.620;12.188;2023-05-07T03:59:18;10.70;;;4.75;;
34828;SDS011;21042;47.620;12.188;2023-05-07T04:01:46;8.20;;;4.13;;
34828;SDS011;21042;47.620;12.188;2023-05-07T04:04:15;7.88;;;3.65;;
34828;SDS011;21042;47.620;12.188;2023-05-07T04:06:42;5.00;;;3.60;;
34828;SDS011;21042;47.620;12.188;2023-05-07T04:09:09;6.75;;;3.70;;
34828;SDS011;21042;47.620;12.188;2023-05-07T04:11:37;6.15;;;3.55;;
34828;SDS011;21042;47.620;12.188;2023-05-07T04:14:08;5.70;;;4.00;;
34828;SDS011;21042;47.620;12.188;2023-05-07T04:16:36;10.95;;;3.63;;
34828;SDS011;21042;47.620;12.188;2023-05-07T04:21:30;7.57;;;4.40;;
34828;SDS011;21042;47.620;12.188;2023-05-07T04:23:57;9.45;;;3.97;;
34828;SDS011;21042;47.620;12.188;2023-05-07T04:26:24;4.40;;;3.67;;
34828;SDS011;21042;47.620;12.188;2023-05-07T04:28:51;6.25;;;3.45;;
34828;SDS011;21042;47.620;12.188;2023-05-07T04:31:18;6.38;;;3.38;;
34828;SDS011;21042;47.620;12.188;2023-05-07T04:33:49;7.25;;;3.50;;
34828;SDS011;21042;47.620;12.188;2023-05-07T04:36:17;6.93;;;3.28;;
34828;SDS011;21042;47.620;12.188;2023-05-07T04:38:56;9.95;;;3.10;;
34828;SDS011;21042;47.620;12.188;2023-05-07T04:41:23;5.22;;;3.25;;
34828;SDS011;21042;47.620;12.188;2023-05-07T04:43:49;4.75;;;3.28;;
34828;SDS011;21042;47.620;12.188;2023-05-07T04:46:20;8.65;;;3.45;;
34828;SDS011;21042;47.620;12.188;2023-05-07T04:48:48;5.65;;;3.30;;
34828;SDS011;21042;47.620;12.188;2023-05-07T04:51:15;4.15;;;3.00;;
34828;SDS011;21042;47.620;12.188;2023-05-07T04:53:42;6.25;;;3.15;;
34828;SDS011;21042;47.620;12.188;2023-05-07T04:56:09;6.82;;;3.80;;
34828;SDS011;21042;47.620;12.188;2023-05-07T04:58:40;3.83;;;3.10;;
34828;SDS011;21042;47.620;12.188;2023-05-07T05:01:08;5.65;;;3.67;;
34828;SDS011;21042;47.620;12.188;2023-05-07T05:03:36;6.63;;;3.55;;
34828;SDS011;21042;47.620;12.188;2023-05-07T05:06:03;9.32;;;3.17;;
34828;SDS011;21042;47.620;12.188;2023-05-07T05:08:32;6.45;;;4.10;;
34828;SDS011;21042;47.620;12.188;2023-05-07T05:11:01;9.18;;;4.05;;
34828;SDS011;21042;47.620;12.188;2023-05-07T05:13:29;6.53;;;4.20;;
34828;SDS011;21042;47.620;12.188;2023-05-07T05:15:57;5.90;;;4.43;;
34828;SDS011;21042;47.620;12.188;2023-05-07T05:18:26;6.88;;;4.50;;
34828;SDS011;21042;47.620;12.188;2023-05-07T05:20:52;7.07;;;4.45;;
34828;SDS011;21042;47.620;12.188;2023-05-07T05:23:19;4.90;;;3.63;;
34828;SDS011;21042;47.620;12.188;2023-05-07T05:25:46;9.80;;;4.55;;
34828;SDS011;21042;47.620;12.188;2023-05-07T05:30:41;11.55;;;4.38;;
34828;SDS011;21042;47.620;12.188;2023-05-07T05:33:08;8.95;;;3.95;;
34828;SDS011;21042;47.620;12.188;2023-05-07T05:35:35;7.25;;;4.50;;
34828;SDS011;21042;47.620;12.188;2023-05-07T05:38:04;6.80;;;4.97;;
34828;SDS011;21042;47.620;12.188;2023-05-07T05:40:32;6.63;;;4.13;;
34828;SDS011;21042;47.620;12.188;2023-05-07T05:42:59;7.03;;;3.60;;
34828;SDS011;21042;47.620;12.188;2023-05-07T05:45:27;4.78;;;3.85;;
34828;SDS011;21042;47.620;12.188;2023-05-07T05:47:55;5.40;;;3.55;;
34828;SDS011;21042;47.620;12.188;2023-05-07T05:50:23;4.97;;;3.88;;
34828;SDS011;21042;47.620;12.188;2023-05-07T05:52:51;6.47;;;3.60;;
34828;SDS011;21042;47.620;12.188;2023-05-07T05:55:19;9.70;;;3.40;;
34828;SDS011;21042;47.620;12.188;2023-05-07T05:57:46;3.78;;;3.08;;
34828;SDS011;21042;47.620;12.188;2023-05-07T06:00:14;9.90;;;3.50;;
34828;SDS011;21042;47.620;12.188;2023-05-07T06:02:45;4.90;;;3.50;;
34828;SDS011;21042;47.620;12.188;2023-05-07T06:05:18;5.85;;;3.28;;
34828;SDS011;21042;47.620;12.188;2023-05-07T06:07:46;7.28;;;3.70;;
34828;SDS011;21042;47.620;12.188;2023-05-07T06:10:14;6.30;;;3.72;;
34828;SDS011;21042;47.620;12.188;2023-05-07T06:12:41;5.00;;;3.53;;
34828;SDS011;21042;47.620;12.188;2023-05-07T06:15:08;12.68;;;3.72;;
34828;SDS011;21042;47.620;12.188;2023-05-07T06:17:35;5.60;;;4.00;;
34828;SDS011;21042;47.620;12.188;2023-05-07T06:20:02;5.75;;;3.38;;
34828;SDS011;21042;47.620;12.188;2023-05-07T06:22:29;9.52;;;3.85;;
34828;SDS011;21042;47.620;12.188;2023-05-07T06:24:56;6.38;;;3.65;;
34828;SDS011;21042;47.620;12.188;2023-05-07T06:27:23;6.63;;;3.65;;
34828;SDS011;21042;47.620;12.188;2023-05-07T06:29:51;4.10;;;3.50;;
34828;SDS011;21042;47.620;12.188;2023-05-07T06:32:18;5.25;;;3.75;;
34828;SDS011;21042;47.620;12.188;2023-05-07T06:34:45;9.02;;;3.95;;
34828;SDS011;21042;47.620;12.188;2023-05-07T06:37:13;6.35;;;3.13;;
34828;SDS011;21042;47.620;12.188;2023-05-07T06:40:06;4.45;;;3.20;;
34828;SDS011;21042;47.620;12.188;2023-05-07T06:42:37;6.65;;;3.35;;
34828;SDS011;21042;47.620;12.188;2023-05-07T06:45:22;8.63;;;3.60;;
34828;SDS011;21042;47.620;12.188;2023-05-07T06:47:50;3.63;;;3.05;;
34828;SDS011;21042;47.620;12.188;2023-05-07T06:50:17;5.22;;;2.95;;
34828;SDS011;21042;47.620;12.188;2023-05-07T06:55:11;4.45;;;2.80;;
34828;SDS011;21042;47.620;12.188;2023-05-07T06:57:38;4.03;;;2.67;;
34828;SDS011;21042;47.620;12.188;2023-05-07T07:00:05;4.60;;;2.70;;
34828;SDS011;21042;47.620;12.188;2023-05-07T07:02:44;3.78;;;2.63;;
34828;SDS011;21042;47.620;12.188;2023-05-07T07:05:12;4.35;;;2.53;;
34828;SDS011;21042;47.620;12.188;2023-05-07T07:07:38;6.40;;;2.78;;
34828;SDS011;21042;47.620;12.188;2023-05-07T07:10:06;3.60;;;2.80;;
34828;SDS011;21042;47.620;12.188;2023-05-07T07:12:33;4.38;;;3.10;;
34828;SDS011;21042;47.620;12.188;2023-05-07T07:15:01;3.78;;;2.88;;
34828;SDS011;21042;47.620;12.188;2023-05-07T07:19:55;3.85;;;2.97;;
34828;SDS011;21042;47.620;12.188;2023-05-07T07:22:22;8.25;;;3.00;;
34828;SDS011;21042;47.620;12.188;2023-05-07T07:24:49;7.20;;;2.72;;
34828;SDS011;21042;47.620;12.188;2023-05-07T07:27:17;3.83;;;2.70;;
34828;SDS011;21042;47.620;12.188;2023-05-07T07:29:44;5.28;;;2.63;;
34828;SDS011;21042;47.620;12.188;2023-05-07T07:32:10;4.43;;;2.58;;
34828;SDS011;21042;47.620;12.188;2023-05-07T07:34:38;4.78;;;2.47;;
34828;SDS011;21042;47.620;12.188;2023-05-07T07:37:06;4.72;;;2.50;;
34828;SDS011;21042;47.620;12.188;2023-05-07T07:39:34;5.50;;;2.50;;
34828;SDS011;21042;47.620;12.188;2023-05-07T07:42:05;7.50;;;2.58;;
34828;SDS011;21042;47.620;12.188;2023-05-07T07:47:04;5.70;;;2.80;;
34828;SDS011;21042;47.620;12.188;2023-05-07T07:49:31;2.78;;;2.00;;
34828;SDS011;21042;47.620;12.188;2023-05-07T07:52:02;2.42;;;2.10;;
34828;SDS011;21042;47.620;12.188;2023-05-07T07:54:30;4.68;;;2.30;;
34828;SDS011;21042;47.620;12.188;2023-05-07T07:56:57;5.68;;;2.78;;
34828;SDS011;21042;47.620;12.188;2023-05-07T07:59:25;4.53;;;2.50;;
34828;SDS011;21042;47.620;12.188;2023-05-07T08:01:52;2.70;;;2.10;;
34828;SDS011;21042;47.620;12.188;2023-05-07T08:04:23;2.45;;;1.90;;
34828;SDS011;21042;47.620;12.188;2023-05-07T08:06:51;4.03;;;2.45;;
34828;SDS011;21042;47.620;12.188;2023-05-07T08:09:18;3.05;;;1.67;;
34828;SDS011;21042;47.620;12.188;2023-05-07T08:11:46;6.60;;;2.47;;
34828;SDS011;21042;47.620;12.188;2023-05-07T08:14:13;4.10;;;2.13;;
34828;SDS011;21042;47.620;12.188;2023-05-07T08:16:44;4.82;;;2.13;;
34828;SDS011;21042;47.620;12.188;2023-05-07T08:19:12;7.30;;;2.03;;
34828;SDS011;21042;47.620;12.188;2023-05-07T08:24:07;2.30;;;2.10;;
34828;SDS011;21042;47.620;12.188;2023-05-07T08:26:34;3.28;;;2.15;;
34828;SDS011;21042;47.620;12.188;2023-05-07T08:29:02;5.97;;;1.90;;
34828;SDS011;21042;47.620;12.188;2023-05-07T08:31:29;4.85;;;2.08;;
34828;SDS011;21042;47.620;12.188;2023-05-07T08:33:56;3.60;;;2.20;;
34828;SDS011;21042;47.620;12.188;2023-05-07T08:36:24;4.30;;;2.03;;
34828;SDS011;21042;47.620;12.188;2023-05-07T08:38:52;4.80;;;2.10;;
34828;SDS011;21042;47.620;12.188;2023-05-07T08:41:20;2.28;;;1.60;;
34828;SDS011;21042;47.620;12.188;2023-05-07T08:43:48;4.68;;;2.13;;
34828;SDS011;21042;47.620;12.188;2023-05-07T08:46:18;3.15;;;1.95;;
34828;SDS011;21042;47.620;12.188;2023-05-07T08:48:52;4.47;;;1.90;;
34828;SDS011;21042;47.620;12.188;2023-05-07T08:51:19;2.83;;;2.30;;
34828;SDS011;21042;47.620;12.188;2023-05-07T08:53:48;5.05;;;2.25;;
34828;SDS011;21042;47.620;12.188;2023-05-07T08:56:22;4.32;;;2.58;;
34828;SDS011;21042;47.620;12.188;2023-05-07T08:58:51;4.40;;;2.70;;
34828;SDS011;21042;47.620;12.188;2023-05-07T09:01:18;5.28;;;2.53;;
34828;SDS011;21042;47.620;12.188;2023-05-07T09:03:50;3.67;;;2.40;;
34828;SDS011;21042;47.620;12.188;2023-05-07T09:06:18;3.17;;;1.92;;
34828;SDS011;21042;47.620;12.188;2023-05-07T09:08:52;2.00;;;1.60;;
34828;SDS011;21042;47.620;12.188;2023-05-07T09:11:23;2.42;;;2.17;;
34828;SDS011;21042;47.620;12.188;2023-05-07T09:13:53;3.33;;;1.92;;
34828;SDS011;21042;47.620;12.188;2023-05-07T09:16:23;5.43;;;1.80;;
34828;SDS011;21042;47.620;12.188;2023-05-07T09:18:52;3.92;;;2.53;;
34828;SDS011;21042;47.620;12.188;2023-05-07T09:21:21;3.08;;;2.20;;
34828;SDS011;21042;47.620;12.188;2023-05-07T09:23:51;4.95;;;2.40;;
34828;SDS011;21042;47.620;12.188;2023-05-07T09:26:22;7.13;;;2.30;;
34828;SDS011;21042;47.620;12.188;2023-05-07T09:28:51;6.15;;;2.30;;
34828;SDS011;21042;47.620;12.188;2023-05-07T09:31:18;2.38;;;2.17;;
34828;SDS011;21042;47.620;12.188;2023-05-07T09:33:48;4.20;;;2.13;;
34828;SDS011;21042;47.620;12.188;2023-05-07T09:36:15;7.30;;;2.20;;
34828;SDS011;21042;47.620;12.188;2023-05-07T09:38:43;3.38;;;2.20;;
34828;SDS011;21042;47.620;12.188;2023-05-07T09:41:12;3.30;;;2.00;;
34828;SDS011;21042;47.620;12.188;2023-05-07T09:43:46;4.05;;;2.00;;
34828;SDS011;21042;47.620;12.188;2023-05-07T09:46:30;3.00;;;2.10;;
34828;SDS011;21042;47.620;12.188;2023-05-07T09:49:01;6.65;;;2.60;;
34828;SDS011;21042;47.620;12.188;2023-05-07T09:54:05;2.15;;;1.90;;
34828;SDS011;21042;47.620;12.188;2023-05-07T09:56:36;2.50;;;2.08;;
34828;SDS011;21042;47.620;12.188;2023-05-07T09:59:10;3.97;;;1.70;;
34828;SDS011;21042;47.620;12.188;2023-05-07T10:01:40;2.38;;;1.90;;
34828;SDS011;21042;47.620;12.188;2023-05-07T10:04:09;2.45;;;2.08;;
34828;SDS011;21042;47.620;12.188;2023-05-07T10:06:38;6.22;;;2.15;;
34828;SDS011;21042;47.620;12.188;2023-05-07T10:09:05;3.47;;;2.25;;
34828;SDS011;21042;47.620;12.188;2023-05-07T10:11:36;2.47;;;1.98;;
34828;SDS011;21042;47.620;12.188;2023-05-07T10:14:04;2.10;;;1.90;;
34828;SDS011;21042;47.620;12.188;2023-05-07T10:16:35;3.25;;;2.38;;
34828;SDS011;21042;47.620;12.188;2023-05-07T10:19:08;5.43;;;2.50;;
34828;SDS011;21042;47.620;12.188;2023-05-07T10:21:44;3.78;;;2.30;;
34828;SDS011;21042;47.620;12.188;2023-05-07T10:24:21;2.50;;;2.10;;
34828;SDS011;21042;47.620;12.188;2023-05-07T10:26:53;2.40;;;2.20;;
34828;SDS011;21042;47.620;12.188;2023-05-07T10:29:37;3.92;;;2.80;;
34828;SDS011;21042;47.620;12.188;2023-05-07T10:32:37;3.47;;;2.47;;
34828;SDS011;21042;47.620;12.188;2023-05-07T10:34:59;3.38;;;3.08;;
34828;SDS011;21042;47.620;12.188;2023-05-07T10:37:29;5.45;;;3.10;;
34828;SDS011;21042;47.620;12.188;2023-05-07T10:39:57;4.35;;;3.20;;
34828;SDS011;21042;47.620;12.188;2023-05-07T10:42:25;7.75;;;3.22;;
34828;SDS011;21042;47.620;12.188;2023-05-07T10:44:54;12.73;;;2.47;;
34828;SDS011;21042;47.620;12.188;2023-05-07T10:47:25;2.90;;;2.70;;
34828;SDS011;21042;47.620;12.188;2023-05-07T10:52:37;3.25;;;2.95;;
34828;SDS011;21042;47.620;12.188;2023-05-07T10:57:50;3.30;;;2.80;;
34828;SDS011;21042;47.620;12.188;2023-05-07T11:00:40;5.72;;;2.75;;
34828;SDS011;21042;47.620;12.188;2023-05-07T11:03:12;5.25;;;3.00;;
34828;SDS011;21042;47.620;12.188;2023-05-07T11:06:10;4.28;;;2.70;;
34828;SDS011;21042;47.620;12.188;2023-05-07T11:08:57;3.92;;;2.90;;
34828;SDS011;21042;47.620;12.188;2023-05-07T11:11:47;8.52;;;2.42;;
34828;SDS011;21042;47.620;12.188;2023-05-07T11:17:16;3.95;;;2.50;;
34828;SDS011;21042;47.620;12.188;2023-05-07T11:19:53;11.30;;;3.05;;
34828;SDS011;21042;47.620;12.188;2023-05-07T11:22:47;5.53;;;3.00;;
34828;SDS011;21042;47.620;12.188;2023-05-07T11:25:17;4.20;;;2.88;;
34828;SDS011;21042;47.620;12.188;2023-05-07T11:27:56;4.72;;;2.70;;
34828;SDS011;21042;47.620;12.188;2023-05-07T11:30:41;4.80;;;2.08;;
34828;SDS011;21042;47.620;12.188;2023-05-07T11:33:11;3.63;;;2.28;;
34828;SDS011;21042;47.620;12.188;2023-05-07T11:35:39;3.50;;;2.30;;
34828;SDS011;21042;47.620;12.188;2023-05-07T11:38:11;8.80;;;1.88;;
34828;SDS011;21042;47.620;12.188;2023-05-07T11:40:50;3.65;;;2.15;;
34828;SDS011;21042;47.620;12.188;2023-05-07T11:43:18;4.13;;;2.20;;
34828;SDS011;21042;47.620;12.188;2023-05-07T11:45:45;6.57;;;2.97;;
34828;SDS011;21042;47.620;12.188;2023-05-07T11:48:13;4.00;;;1.80;;
34828;SDS011;21042;47.620;12.188;2023-05-07T11:51:23;4.20;;;1.80;;
34828;SDS011;21042;47.620;12.188;2023-05-07T11:53:36;7.65;;;2.20;;
34828;SDS011;21042;47.620;12.188;2023-05-07T11:58:35;9.57;;;2.55;;
34828;SDS011;21042;47.620;12.188;2023-05-07T12:03:29;5.60;;;2.13;;
34828;SDS011;21042;47.620;12.188;2023-05-07T12:06:01;4.43;;;1.95;;
34828;SDS011;21042;47.620;12.188;2023-05-07T12:08:27;6.03;;;1.92;;
34828;SDS011;21042;47.620;12.188;2023-05-07T12:10:54;4.03;;;1.88;;
34828;SDS011;21042;47.620;12.188;2023-05-07T12:13:22;3.90;;;1.67;;
34828;SDS011;21042;47.620;12.188;2023-05-07T12:15:55;3.45;;;1.90;;
34828;SDS011;21042;47.620;12.188;2023-05-07T12:18:22;5.10;;;1.85;;
34828;SDS011;21042;47.620;12.188;2023-05-07T12:20:49;4.95;;;2.38;;
34828;SDS011;21042;47.620;12.188;2023-05-07T12:25:43;6.07;;;2.70;;
34828;SDS011;21042;47.620;12.188;2023-05-07T12:28:14;4.35;;;2.72;;
34828;SDS011;21042;47.620;12.188;2023-05-07T12:30:42;4.00;;;2.55;;
34828;SDS011;21042;47.620;12.188;2023-05-07T12:33:10;4.43;;;2.00;;
34828;SDS011;21042;47.620;12.188;2023-05-07T12:35:39;3.33;;;2.30;;
34828;SDS011;21042;47.620;12.188;2023-05-07T12:38:10;2.58;;;2.22;;
34828;SDS011;21042;47.620;12.188;2023-05-07T12:40:39;3.65;;;2.30;;
34828;SDS011;21042;47.620;12.188;2023-05-07T12:43:14;4.40;;;2.35;;
34828;SDS011;21042;47.620;12.188;2023-05-07T12:45:51;4.80;;;2.00;;
34828;SDS011;21042;47.620;12.188;2023-05-07T12:48:21;8.43;;;2.10;;
34828;SDS011;21042;47.620;12.188;2023-05-07T12:50:50;3.90;;;2.28;;
34828;SDS011;21042;47.620;12.188;2023-05-07T12:53:19;3.88;;;2.15;;
34828;SDS011;21042;47.620;12.188;2023-05-07T12:55:48;2.95;;;2.45;;
34828;SDS011;21042;47.620;12.188;2023-05-07T12:58:17;5.63;;;1.90;;
34828;SDS011;21042;47.620;12.188;2023-05-07T13:00:47;5.93;;;2.13;;
34828;SDS011;21042;47.620;12.188;2023-05-07T13:03:28;6.82;;;2.17;;
34828;SDS011;21042;47.620;12.188;2023-05-07T13:05:57;2.88;;;1.92;;
34828;SDS011;21042;47.620;12.188;2023-05-07T13:08:29;5.05;;;2.58;;
34828;SDS011;21042;47.620;12.188;2023-05-07T13:10:58;3.53;;;2.10;;
34828;SDS011;21042;47.620;12.188;2023-05-07T13:13:30;6.20;;;2.20;;
34828;SDS011;21042;47.620;12.188;2023-05-07T13:15:58;3.42;;;1.88;;
34828;SDS011;21042;47.620;12.188;2023-05-07T13:18:25;3.97;;;2.00;;
34828;SDS011;21042;47.620;12.188;2023-05-07T13:20:53;2.55;;;1.77;;
34828;SDS011;21042;47.620;12.188;2023-05-07T13:23:20;2.25;;;1.52;;
34828;SDS011;21042;47.620;12.188;2023-05-07T13:25:47;2.00;;;1.65;;
34828;SDS011;21042;47.620;12.188;2023-05-07T13:28:15;4.30;;;1.40;;
34828;SDS011;21042;47.620;12.188;2023-05-07T13:30:42;3.17;;;1.50;;
34828;SDS011;21042;47.620;12.188;2023-05-07T13:33:09;3.53;;;1.55;;
34828;SDS011;21042;47.620;12.188;2023-05-07T13:35:36;2.65;;;1.35;;
34828;SDS011;21042;47.620;12.188;2023-05-07T13:38:03;3.13;;;2.53;;
34828;SDS011;21042;47.620;12.188;2023-05-07T13:40:30;4.20;;;1.92;;
34828;SDS011;21042;47.620;12.188;2023-05-07T13:42:59;4.43;;;2.75;;
34828;SDS011;21042;47.620;12.188;2023-05-07T13:45:28;8.50;;;3.45;;
34828;SDS011;21042;47.620;12.188;2023-05-07T13:47:56;7.20;;;3.67;;
34828;SDS011;21042;47.620;12.188;2023-05-07T13:50:23;3.33;;;2.38;;
34828;SDS011;21042;47.620;12.188;2023-05-07T13:52:52;4.18;;;2.20;;
34828;SDS011;21042;47.620;12.188;2023-05-07T13:55:23;5.22;;;1.80;;
34828;SDS011;21042;47.620;12.188;2023-05-07T13:57:56;2.15;;;1.52;;
34828;SDS011;21042;47.620;12.188;2023-05-07T14:00:25;2.90;;;1.80;;
34828;SDS011;21042;47.620;12.188;2023-05-07T14:02:53;4.40;;;2.05;;
34828;SDS011;21042;47.620;12.188;2023-05-07T14:05:21;3.40;;;1.67;;
34828;SDS011;21042;47.620;12.188;2023-05-07T14:07:51;2.30;;;1.65;;
34828;SDS011;21042;47.620;12.188;2023-05-07T14:10:19;5.72;;;1.52;;
34828;SDS011;21042;47.620;12.188;2023-05-07T14:15:14;1.37;;;1.13;;
34828;SDS011;21042;47.620;12.188;2023-05-07T14:20:08;5.38;;;1.70;;
34828;SDS011;21042;47.620;12.188;2023-05-07T14:22:36;3.45;;;1.40;;
34828;SDS011;21042;47.620;12.188;2023-05-07T14:25:03;6.82;;;4.18;;
34828;SDS011;21042;47.620;12.188;2023-05-07T14:27:32;1.45;;;1.30;;
34828;SDS011;21042;47.620;12.188;2023-05-07T14:29:59;2.03;;;1.33;;
34828;SDS011;21042;47.620;12.188;2023-05-07T14:32:26;1.90;;;1.35;;
34828;SDS011;21042;47.620;12.188;2023-05-07T14:34:53;1.40;;;1.30;;
34828;SDS011;21042;47.620;12.188;2023-05-07T14:37:19;2.38;;;1.05;;
34828;SDS011;21042;47.620;12.188;2023-05-07T14:39:46;2.33;;;1.02;;
34828;SDS011;21042;47.620;12.188;2023-05-07T14:42:16;3.97;;;1.17;;
34828;SDS011;21042;47.620;12.188;2023-05-07T14:44:44;2.20;;;1.58;;
34828;SDS011;21042;47.620;12.188;2023-05-07T14:47:12;2.00;;;1.20;;
34828;SDS011;21042;47.620;12.188;2023-05-07T14:52:06;2.37;;;1.40;;
34828;SDS011;21042;47.620;12.188;2023-05-07T14:54:37;5.20;;;1.45;;
34828;SDS011;21042;47.620;12.188;2023-05-07T14:57:05;2.33;;;0.90;;
34828;SDS011;21042;47.620;12.188;2023-05-07T14:59:33;3.30;;;1.10;;
34828;SDS011;21042;47.620;12.188;2023-05-07T15:02:00;3.95;;;0.95;;
34828;SDS011;21042;47.620;12.188;2023-05-07T15:04:31;3.20;;;1.30;;
34828;SDS011;21042;47.620;12.188;2023-05-07T15:06:58;5.55;;;1.10;;
34828;SDS011;21042;47.620;12.188;2023-05-07T15:09:25;2.17;;;1.27;;
34828;SDS011;21042;47.620;12.188;2023-05-07T15:11:52;2.97;;;1.45;;
34828;SDS011;21042;47.620;12.188;2023-05-07T15:14:19;2.15;;;1.13;;
34828;SDS011;21042;47.620;12.188;2023-05-07T15:16:48;2.63;;;1.42;;
34828;SDS011;21042;47.620;12.188;2023-05-07T15:19:15;6.13;;;2.20;;
34828;SDS011;21042;47.620;12.188;2023-05-07T15:21:42;3.17;;;1.60;;
34828;SDS011;21042;47.620;12.188;2023-05-07T15:24:09;5.03;;;1.50;;
34828;SDS011;21042;47.620;12.188;2023-05-07T15:26:36;2.25;;;1.70;;
34828;SDS011;21042;47.620;12.188;2023-05-07T15:29:03;3.97;;;1.05;;
34828;SDS011;21042;47.620;12.188;2023-05-07T15:31:34;3.50;;;1.35;;
34828;SDS011;21042;47.620;12.188;2023-05-07T15:34:01;3.92;;;1.30;;
34828;SDS011;21042;47.620;12.188;2023-05-07T15:36:27;2.47;;;1.38;;
34828;SDS011;21042;47.620;12.188;2023-05-07T15:38:54;5.25;;;1.05;;
34828;SDS011;21042;47.620;12.188;2023-05-07T15:41:21;3.22;;;1.33;;